KOGA/OGA METAR and TAF weather

Enter ICAO airport designator
Station Type Date Time Source
KOGA METAR 2019/11/18 11:35 UTC NOAA

KOGA 181135Z AUTO 24003KT 10SM CLR 05/00 A2984 RMK AO2 T00480001


Station Type Date Time Source
KOGA Decoded METAR 2019/11/18 11:35 UTC NOAA

Ogallala, Searle Field Airport, NE, United States (KOGA) 41-07-11N 101-46-08W
Nov 18, 2019 - 06:35 AM EST / 2019.11.18 1135 UTC
Wind: from the WSW (240 degrees) at 3 MPH (3 KT):0
Visibility: 10 mile(s):0
Sky conditions: clear
Temperature: 40.6 F (4.8 C)
Dew Point: 32.2 F (0.1 C)
Relative Humidity: 71%
Pressure (altimeter): 29.84 in. Hg (1010 hPa)
ob: KOGA 181135Z AUTO 24003KT 10SM CLR 05/00 A2984 RMK AO2 T00480001
cycle: 11

Station Type Date Time Source
KOGA TAF UTC NOAA

Error!

Example: see airport list